sensor_id;sensor_type;location;lat;lon;timestamp;P1;durP1;ratioP1;P2;durP2;ratioP2
11763;SDS011;5939;56.522;14.950;2023-05-10T00:00:38;4.90;;;2.77;;
11763;SDS011;5939;56.522;14.950;2023-05-10T00:03:04;3.97;;;2.90;;
11763;SDS011;5939;56.522;14.950;2023-05-10T00:05:30;5.13;;;3.20;;
11763;SDS011;5939;56.522;14.950;2023-05-10T00:07:56;3.63;;;3.07;;
11763;SDS011;5939;56.522;14.950;2023-05-10T00:10:22;3.70;;;3.33;;
11763;SDS011;5939;56.522;14.950;2023-05-10T00:12:48;5.47;;;3.40;;
11763;SDS011;5939;56.522;14.950;2023-05-10T00:15:13;4.50;;;3.20;;
11763;SDS011;5939;56.522;14.950;2023-05-10T00:17:39;3.10;;;2.80;;
11763;SDS011;5939;56.522;14.950;2023-05-10T00:20:05;4.43;;;3.47;;
11763;SDS011;5939;56.522;14.950;2023-05-10T00:22:31;6.67;;;2.87;;
11763;SDS011;5939;56.522;14.950;2023-05-10T00:24:57;3.67;;;3.00;;
11763;SDS011;5939;56.522;14.950;2023-05-10T00:27:23;4.90;;;3.23;;
11763;SDS011;5939;56.522;14.950;2023-05-10T00:29:49;3.57;;;2.80;;
11763;SDS011;5939;56.522;14.950;2023-05-10T00:32:14;4.73;;;2.93;;
11763;SDS011;5939;56.522;14.950;2023-05-10T00:34:41;4.57;;;3.30;;
11763;SDS011;5939;56.522;14.950;2023-05-10T00:37:07;3.93;;;3.10;;
11763;SDS011;5939;56.522;14.950;2023-05-10T00:39:33;3.67;;;3.03;;
11763;SDS011;5939;56.522;14.950;2023-05-10T00:41:58;3.23;;;2.93;;
11763;SDS011;5939;56.522;14.950;2023-05-10T00:44:25;5.73;;;3.43;;
11763;SDS011;5939;56.522;14.950;2023-05-10T00:46:50;3.63;;;3.00;;
11763;SDS011;5939;56.522;14.950;2023-05-10T00:49:16;4.17;;;2.93;;
11763;SDS011;5939;56.522;14.950;2023-05-10T00:51:42;4.03;;;2.77;;
11763;SDS011;5939;56.522;14.950;2023-05-10T00:54:12;4.07;;;2.90;;
11763;SDS011;5939;56.522;14.950;2023-05-10T00:56:40;3.90;;;3.03;;
11763;SDS011;5939;56.522;14.950;2023-05-10T00:59:06;4.17;;;2.87;;
11763;SDS011;5939;56.522;14.950;2023-05-10T01:01:35;4.83;;;3.00;;
11763;SDS011;5939;56.522;14.950;2023-05-10T01:04:01;3.07;;;2.77;;
11763;SDS011;5939;56.522;14.950;2023-05-10T01:06:28;3.57;;;2.97;;
11763;SDS011;5939;56.522;14.950;2023-05-10T01:08:54;4.00;;;3.30;;
11763;SDS011;5939;56.522;14.950;2023-05-10T01:11:20;3.77;;;3.20;;
11763;SDS011;5939;56.522;14.950;2023-05-10T01:13:47;4.10;;;3.10;;
11763;SDS011;5939;56.522;14.950;2023-05-10T01:16:20;3.70;;;3.13;;
11763;SDS011;5939;56.522;14.950;2023-05-10T01:18:45;3.40;;;2.80;;
11763;SDS011;5939;56.522;14.950;2023-05-10T01:32:15;4.57;;;3.10;;
11763;SDS011;5939;56.522;14.950;2023-05-10T01:37:43;4.47;;;3.00;;
11763;SDS011;5939;56.522;14.950;2023-05-10T01:40:23;4.13;;;3.10;;
11763;SDS011;5939;56.522;14.950;2023-05-10T01:42:59;3.43;;;2.87;;
11763;SDS011;5939;56.522;14.950;2023-05-10T01:45:29;4.97;;;2.90;;
11763;SDS011;5939;56.522;14.950;2023-05-10T01:48:07;3.90;;;2.77;;
11763;SDS011;5939;56.522;14.950;2023-05-10T01:50:35;4.70;;;3.07;;
11763;SDS011;5939;56.522;14.950;2023-05-10T01:53:03;3.53;;;2.70;;
11763;SDS011;5939;56.522;14.950;2023-05-10T01:55:33;4.80;;;2.90;;
11763;SDS011;5939;56.522;14.950;2023-05-10T01:58:14;3.50;;;3.10;;
11763;SDS011;5939;56.522;14.950;2023-05-10T02:00:44;5.63;;;3.20;;
11763;SDS011;5939;56.522;14.950;2023-05-10T02:03:11;6.50;;;3.57;;
11763;SDS011;5939;56.522;14.950;2023-05-10T02:05:37;3.93;;;2.77;;
11763;SDS011;5939;56.522;14.950;2023-05-10T02:08:07;3.53;;;3.10;;
11763;SDS011;5939;56.522;14.950;2023-05-10T02:10:34;5.27;;;2.97;;
11763;SDS011;5939;56.522;14.950;2023-05-10T02:13:00;5.40;;;3.40;;
11763;SDS011;5939;56.522;14.950;2023-05-10T02:15:27;5.60;;;2.93;;
11763;SDS011;5939;56.522;14.950;2023-05-10T02:17:54;3.50;;;3.20;;
11763;SDS011;5939;56.522;14.950;2023-05-10T02:20:21;3.40;;;3.10;;
11763;SDS011;5939;56.522;14.950;2023-05-10T02:22:48;3.80;;;2.80;;
11763;SDS011;5939;56.522;14.950;2023-05-10T02:25:15;4.33;;;2.80;;
11763;SDS011;5939;56.522;14.950;2023-05-10T02:27:42;3.10;;;2.80;;
11763;SDS011;5939;56.522;14.950;2023-05-10T02:30:09;5.10;;;3.47;;
11763;SDS011;5939;56.522;14.950;2023-05-10T02:32:35;3.97;;;3.40;;
11763;SDS011;5939;56.522;14.950;2023-05-10T02:35:02;3.87;;;2.77;;
11763;SDS011;5939;56.522;14.950;2023-05-10T02:37:29;5.93;;;3.20;;
11763;SDS011;5939;56.522;14.950;2023-05-10T02:39:55;5.57;;;3.40;;
11763;SDS011;5939;56.522;14.950;2023-05-10T02:42:23;3.17;;;2.87;;
11763;SDS011;5939;56.522;14.950;2023-05-10T02:44:51;4.40;;;3.10;;
11763;SDS011;5939;56.522;14.950;2023-05-10T02:47:18;4.47;;;2.97;;
11763;SDS011;5939;56.522;14.950;2023-05-10T02:49:44;4.17;;;3.20;;
11763;SDS011;5939;56.522;14.950;2023-05-10T02:52:11;4.87;;;3.77;;
11763;SDS011;5939;56.522;14.950;2023-05-10T02:54:41;4.90;;;3.50;;
11763;SDS011;5939;56.522;14.950;2023-05-10T02:57:10;5.73;;;3.20;;
11763;SDS011;5939;56.522;14.950;2023-05-10T02:59:37;4.27;;;3.50;;
11763;SDS011;5939;56.522;14.950;2023-05-10T03:02:03;4.60;;;3.43;;
11763;SDS011;5939;56.522;14.950;2023-05-10T03:04:29;6.10;;;3.53;;
11763;SDS011;5939;56.522;14.950;2023-05-10T03:06:55;5.10;;;3.00;;
11763;SDS011;5939;56.522;14.950;2023-05-10T03:09:21;4.93;;;3.63;;
11763;SDS011;5939;56.522;14.950;2023-05-10T03:11:59;3.60;;;2.97;;
11763;SDS011;5939;56.522;14.950;2023-05-10T03:17:13;3.90;;;3.50;;
11763;SDS011;5939;56.522;14.950;2023-05-10T03:19:54;4.63;;;3.37;;
11763;SDS011;5939;56.522;14.950;2023-05-10T03:22:44;4.37;;;3.40;;
11763;SDS011;5939;56.522;14.950;2023-05-10T03:25:07;5.07;;;4.00;;
11763;SDS011;5939;56.522;14.950;2023-05-10T03:27:33;3.33;;;3.03;;
11763;SDS011;5939;56.522;14.950;2023-05-10T03:30:01;4.50;;;3.10;;
11763;SDS011;5939;56.522;14.950;2023-05-10T03:32:28;3.83;;;3.03;;
11763;SDS011;5939;56.522;14.950;2023-05-10T03:34:56;3.93;;;3.10;;
11763;SDS011;5939;56.522;14.950;2023-05-10T03:37:22;5.67;;;3.40;;
11763;SDS011;5939;56.522;14.950;2023-05-10T03:39:48;3.73;;;3.10;;
11763;SDS011;5939;56.522;14.950;2023-05-10T03:42:14;3.70;;;3.30;;
11763;SDS011;5939;56.522;14.950;2023-05-10T03:44:42;7.43;;;2.83;;
11763;SDS011;5939;56.522;14.950;2023-05-10T03:47:08;4.60;;;3.10;;
11763;SDS011;5939;56.522;14.950;2023-05-10T03:49:34;5.93;;;3.40;;
11763;SDS011;5939;56.522;14.950;2023-05-10T03:52:00;4.87;;;3.40;;
11763;SDS011;5939;56.522;14.950;2023-05-10T03:54:26;3.67;;;2.93;;
11763;SDS011;5939;56.522;14.950;2023-05-10T03:56:52;5.13;;;3.43;;
11763;SDS011;5939;56.522;14.950;2023-05-10T03:59:18;3.80;;;3.00;;
11763;SDS011;5939;56.522;14.950;2023-05-10T04:01:45;4.73;;;3.20;;
11763;SDS011;5939;56.522;14.950;2023-05-10T04:04:11;4.20;;;3.17;;
11763;SDS011;5939;56.522;14.950;2023-05-10T04:06:37;7.37;;;3.47;;
11763;SDS011;5939;56.522;14.950;2023-05-10T04:09:03;3.73;;;3.00;;
11763;SDS011;5939;56.522;14.950;2023-05-10T04:11:29;3.47;;;3.10;;
11763;SDS011;5939;56.522;14.950;2023-05-10T04:13:56;4.50;;;3.57;;
11763;SDS011;5939;56.522;14.950;2023-05-10T04:16:22;5.27;;;3.30;;
11763;SDS011;5939;56.522;14.950;2023-05-10T04:18:48;4.37;;;3.30;;
11763;SDS011;5939;56.522;14.950;2023-05-10T04:21:14;5.93;;;3.37;;
11763;SDS011;5939;56.522;14.950;2023-05-10T04:23:40;5.20;;;3.50;;
11763;SDS011;5939;56.522;14.950;2023-05-10T04:26:06;5.37;;;3.10;;
11763;SDS011;5939;56.522;14.950;2023-05-10T04:28:32;5.43;;;3.40;;
11763;SDS011;5939;56.522;14.950;2023-05-10T04:31:09;4.50;;;3.50;;
11763;SDS011;5939;56.522;14.950;2023-05-10T04:33:36;6.23;;;3.40;;
11763;SDS011;5939;56.522;14.950;2023-05-10T04:36:02;3.80;;;3.40;;
11763;SDS011;5939;56.522;14.950;2023-05-10T04:38:28;4.43;;;3.30;;
11763;SDS011;5939;56.522;14.950;2023-05-10T04:40:55;4.23;;;3.30;;
11763;SDS011;5939;56.522;14.950;2023-05-10T04:43:29;6.17;;;3.10;;
11763;SDS011;5939;56.522;14.950;2023-05-10T04:45:58;5.20;;;3.30;;
11763;SDS011;5939;56.522;14.950;2023-05-10T04:48:24;6.30;;;3.13;;
11763;SDS011;5939;56.522;14.950;2023-05-10T04:50:50;5.67;;;3.03;;
11763;SDS011;5939;56.522;14.950;2023-05-10T04:53:16;4.40;;;3.20;;
11763;SDS011;5939;56.522;14.950;2023-05-10T04:55:42;4.50;;;3.67;;
11763;SDS011;5939;56.522;14.950;2023-05-10T04:58:08;4.60;;;3.00;;
11763;SDS011;5939;56.522;14.950;2023-05-10T05:00:34;4.00;;;3.10;;
11763;SDS011;5939;56.522;14.950;2023-05-10T05:03:00;5.70;;;3.50;;
11763;SDS011;5939;56.522;14.950;2023-05-10T05:05:26;6.23;;;3.40;;
11763;SDS011;5939;56.522;14.950;2023-05-10T05:07:52;3.80;;;3.23;;
11763;SDS011;5939;56.522;14.950;2023-05-10T05:10:18;5.17;;;3.50;;
11763;SDS011;5939;56.522;14.950;2023-05-10T05:12:44;5.00;;;3.13;;
11763;SDS011;5939;56.522;14.950;2023-05-10T05:15:10;3.97;;;3.33;;
11763;SDS011;5939;56.522;14.950;2023-05-10T05:17:36;4.63;;;3.33;;
11763;SDS011;5939;56.522;14.950;2023-05-10T05:20:03;6.00;;;3.73;;
11763;SDS011;5939;56.522;14.950;2023-05-10T05:22:29;6.47;;;3.60;;
11763;SDS011;5939;56.522;14.950;2023-05-10T05:24:55;4.93;;;3.57;;
11763;SDS011;5939;56.522;14.950;2023-05-10T05:27:23;5.47;;;3.13;;
11763;SDS011;5939;56.522;14.950;2023-05-10T05:29:52;5.33;;;3.37;;
11763;SDS011;5939;56.522;14.950;2023-05-10T05:32:18;4.27;;;3.60;;
11763;SDS011;5939;56.522;14.950;2023-05-10T05:34:44;4.20;;;3.37;;
11763;SDS011;5939;56.522;14.950;2023-05-10T05:37:18;5.37;;;3.13;;
11763;SDS011;5939;56.522;14.950;2023-05-10T05:39:44;5.57;;;3.77;;
11763;SDS011;5939;56.522;14.950;2023-05-10T05:42:11;3.97;;;3.30;;
11763;SDS011;5939;56.522;14.950;2023-05-10T05:44:37;5.00;;;3.20;;
11763;SDS011;5939;56.522;14.950;2023-05-10T05:47:03;4.23;;;3.40;;
11763;SDS011;5939;56.522;14.950;2023-05-10T05:49:30;5.07;;;3.43;;
11763;SDS011;5939;56.522;14.950;2023-05-10T05:52:02;3.80;;;3.13;;
11763;SDS011;5939;56.522;14.950;2023-05-10T05:54:29;4.47;;;3.30;;
11763;SDS011;5939;56.522;14.950;2023-05-10T05:56:56;3.63;;;2.97;;
11763;SDS011;5939;56.522;14.950;2023-05-10T05:59:22;3.37;;;2.83;;
11763;SDS011;5939;56.522;14.950;2023-05-10T06:01:48;4.27;;;3.30;;
11763;SDS011;5939;56.522;14.950;2023-05-10T06:04:13;5.13;;;3.40;;
11763;SDS011;5939;56.522;14.950;2023-05-10T06:06:39;4.00;;;3.50;;
11763;SDS011;5939;56.522;14.950;2023-05-10T06:09:05;6.73;;;3.50;;
11763;SDS011;5939;56.522;14.950;2023-05-10T06:11:31;6.27;;;3.47;;
11763;SDS011;5939;56.522;14.950;2023-05-10T06:13:59;3.97;;;3.40;;
11763;SDS011;5939;56.522;14.950;2023-05-10T06:16:25;4.90;;;3.13;;
11763;SDS011;5939;56.522;14.950;2023-05-10T06:18:51;4.57;;;3.33;;
11763;SDS011;5939;56.522;14.950;2023-05-10T06:21:17;3.40;;;3.07;;
11763;SDS011;5939;56.522;14.950;2023-05-10T06:23:42;4.20;;;2.90;;
11763;SDS011;5939;56.522;14.950;2023-05-10T06:26:08;6.23;;;3.63;;
11763;SDS011;5939;56.522;14.950;2023-05-10T06:28:34;5.80;;;3.20;;
11763;SDS011;5939;56.522;14.950;2023-05-10T06:31:03;3.47;;;3.10;;
11763;SDS011;5939;56.522;14.950;2023-05-10T06:33:29;5.53;;;3.33;;
11763;SDS011;5939;56.522;14.950;2023-05-10T06:35:55;4.07;;;3.13;;
11763;SDS011;5939;56.522;14.950;2023-05-10T06:38:20;4.63;;;3.17;;
11763;SDS011;5939;56.522;14.950;2023-05-10T06:40:46;5.73;;;2.90;;
11763;SDS011;5939;56.522;14.950;2023-05-10T06:43:12;5.90;;;3.30;;
11763;SDS011;5939;56.522;14.950;2023-05-10T06:45:37;5.77;;;3.07;;
11763;SDS011;5939;56.522;14.950;2023-05-10T06:48:03;3.77;;;2.90;;
11763;SDS011;5939;56.522;14.950;2023-05-10T06:50:29;3.43;;;3.10;;
11763;SDS011;5939;56.522;14.950;2023-05-10T06:52:55;3.83;;;2.80;;
11763;SDS011;5939;56.522;14.950;2023-05-10T06:55:20;5.10;;;2.80;;
11763;SDS011;5939;56.522;14.950;2023-05-10T06:57:46;5.67;;;3.43;;
11763;SDS011;5939;56.522;14.950;2023-05-10T07:00:12;3.57;;;2.77;;
11763;SDS011;5939;56.522;14.950;2023-05-10T07:02:39;3.80;;;2.43;;
11763;SDS011;5939;56.522;14.950;2023-05-10T07:05:04;4.33;;;2.70;;
11763;SDS011;5939;56.522;14.950;2023-05-10T07:07:31;3.77;;;2.73;;
11763;SDS011;5939;56.522;14.950;2023-05-10T07:09:56;4.10;;;3.00;;
11763;SDS011;5939;56.522;14.950;2023-05-10T07:12:22;4.63;;;2.93;;
11763;SDS011;5939;56.522;14.950;2023-05-10T07:14:48;5.37;;;2.57;;
11763;SDS011;5939;56.522;14.950;2023-05-10T07:17:14;4.67;;;2.63;;
11763;SDS011;5939;56.522;14.950;2023-05-10T07:19:40;3.37;;;2.70;;
11763;SDS011;5939;56.522;14.950;2023-05-10T07:22:05;4.00;;;2.87;;
11763;SDS011;5939;56.522;14.950;2023-05-10T07:24:32;4.03;;;2.60;;
11763;SDS011;5939;56.522;14.950;2023-05-10T07:26:58;3.23;;;2.50;;
11763;SDS011;5939;56.522;14.950;2023-05-10T07:29:23;5.93;;;2.80;;
11763;SDS011;5939;56.522;14.950;2023-05-10T07:31:49;9.50;;;2.60;;
11763;SDS011;5939;56.522;14.950;2023-05-10T07:34:15;8.07;;;2.60;;
11763;SDS011;5939;56.522;14.950;2023-05-10T07:36:40;5.17;;;3.20;;
11763;SDS011;5939;56.522;14.950;2023-05-10T07:39:06;4.93;;;2.60;;
11763;SDS011;5939;56.522;14.950;2023-05-10T07:41:32;4.00;;;2.50;;
11763;SDS011;5939;56.522;14.950;2023-05-10T07:43:58;3.70;;;2.70;;
11763;SDS011;5939;56.522;14.950;2023-05-10T07:46:23;4.53;;;2.47;;
11763;SDS011;5939;56.522;14.950;2023-05-10T07:48:49;6.23;;;2.57;;
11763;SDS011;5939;56.522;14.950;2023-05-10T07:51:15;4.23;;;2.40;;
11763;SDS011;5939;56.522;14.950;2023-05-10T07:53:40;4.13;;;2.50;;
11763;SDS011;5939;56.522;14.950;2023-05-10T07:56:26;5.30;;;2.57;;
11763;SDS011;5939;56.522;14.950;2023-05-10T07:58:54;4.90;;;2.33;;
11763;SDS011;5939;56.522;14.950;2023-05-10T08:01:21;4.87;;;2.60;;
11763;SDS011;5939;56.522;14.950;2023-05-10T08:03:47;4.10;;;2.43;;
11763;SDS011;5939;56.522;14.950;2023-05-10T08:06:14;4.20;;;2.57;;
11763;SDS011;5939;56.522;14.950;2023-05-10T08:08:40;3.73;;;2.50;;
11763;SDS011;5939;56.522;14.950;2023-05-10T08:11:06;2.87;;;2.50;;
11763;SDS011;5939;56.522;14.950;2023-05-10T08:13:32;5.80;;;2.57;;
11763;SDS011;5939;56.522;14.950;2023-05-10T08:15:58;4.27;;;2.30;;
11763;SDS011;5939;56.522;14.950;2023-05-10T08:18:23;5.77;;;2.87;;
11763;SDS011;5939;56.522;14.950;2023-05-10T08:20:49;4.00;;;2.40;;
11763;SDS011;5939;56.522;14.950;2023-05-10T08:23:15;2.60;;;2.40;;
11763;SDS011;5939;56.522;14.950;2023-05-10T08:25:40;5.23;;;2.77;;
11763;SDS011;5939;56.522;14.950;2023-05-10T08:28:06;2.93;;;2.30;;
11763;SDS011;5939;56.522;14.950;2023-05-10T08:30:32;4.00;;;2.47;;
11763;SDS011;5939;56.522;14.950;2023-05-10T08:32:57;4.00;;;2.10;;
11763;SDS011;5939;56.522;14.950;2023-05-10T08:35:23;3.50;;;2.40;;
11763;SDS011;5939;56.522;14.950;2023-05-10T08:37:50;3.57;;;2.53;;
11763;SDS011;5939;56.522;14.950;2023-05-10T08:40:16;2.23;;;2.00;;
11763;SDS011;5939;56.522;14.950;2023-05-10T08:42:47;2.60;;;2.40;;
11763;SDS011;5939;56.522;14.950;2023-05-10T08:45:20;6.60;;;2.50;;
11763;SDS011;5939;56.522;14.950;2023-05-10T08:47:49;3.63;;;2.40;;
11763;SDS011;5939;56.522;14.950;2023-05-10T08:50:16;6.23;;;2.83;;
11763;SDS011;5939;56.522;14.950;2023-05-10T08:52:45;4.53;;;2.60;;
11763;SDS011;5939;56.522;14.950;2023-05-10T08:55:13;3.70;;;2.50;;
11763;SDS011;5939;56.522;14.950;2023-05-10T08:57:40;6.33;;;2.90;;
11763;SDS011;5939;56.522;14.950;2023-05-10T09:00:06;8.07;;;2.60;;
11763;SDS011;5939;56.522;14.950;2023-05-10T09:02:33;4.83;;;2.57;;
11763;SDS011;5939;56.522;14.950;2023-05-10T09:05:00;3.77;;;2.30;;
11763;SDS011;5939;56.522;14.950;2023-05-10T09:07:26;4.47;;;2.70;;
11763;SDS011;5939;56.522;14.950;2023-05-10T09:09:52;6.03;;;2.40;;
11763;SDS011;5939;56.522;14.950;2023-05-10T09:12:19;5.73;;;2.37;;
11763;SDS011;5939;56.522;14.950;2023-05-10T09:14:45;4.30;;;2.23;;
11763;SDS011;5939;56.522;14.950;2023-05-10T09:17:11;2.83;;;1.90;;
11763;SDS011;5939;56.522;14.950;2023-05-10T09:19:37;5.87;;;2.27;;
11763;SDS011;5939;56.522;14.950;2023-05-10T09:22:03;3.53;;;2.47;;
11763;SDS011;5939;56.522;14.950;2023-05-10T09:24:29;3.70;;;2.40;;
11763;SDS011;5939;56.522;14.950;2023-05-10T09:26:56;3.93;;;2.87;;
11763;SDS011;5939;56.522;14.950;2023-05-10T09:29:23;3.57;;;2.20;;
11763;SDS011;5939;56.522;14.950;2023-05-10T09:31:50;4.20;;;2.30;;
11763;SDS011;5939;56.522;14.950;2023-05-10T09:34:20;3.20;;;2.30;;
11763;SDS011;5939;56.522;14.950;2023-05-10T09:36:57;4.23;;;2.20;;
11763;SDS011;5939;56.522;14.950;2023-05-10T09:39:29;3.87;;;2.30;;
11763;SDS011;5939;56.522;14.950;2023-05-10T09:41:57;4.23;;;2.30;;
11763;SDS011;5939;56.522;14.950;2023-05-10T09:44:25;4.63;;;2.30;;
11763;SDS011;5939;56.522;14.950;2023-05-10T09:46:51;6.03;;;2.43;;
11763;SDS011;5939;56.522;14.950;2023-05-10T09:49:18;4.27;;;2.37;;
11763;SDS011;5939;56.522;14.950;2023-05-10T09:51:44;6.50;;;2.53;;
11763;SDS011;5939;56.522;14.950;2023-05-10T09:54:11;3.80;;;2.30;;
11763;SDS011;5939;56.522;14.950;2023-05-10T09:56:39;3.53;;;2.30;;
11763;SDS011;5939;56.522;14.950;2023-05-10T09:59:14;4.40;;;2.30;;
11763;SDS011;5939;56.522;14.950;2023-05-10T10:01:40;4.10;;;2.13;;
11763;SDS011;5939;56.522;14.950;2023-05-10T10:04:07;6.17;;;2.30;;
11763;SDS011;5939;56.522;14.950;2023-05-10T10:06:39;3.73;;;1.80;;
11763;SDS011;5939;56.522;14.950;2023-05-10T10:09:05;4.13;;;2.40;;
11763;SDS011;5939;56.522;14.950;2023-05-10T10:11:34;4.60;;;2.20;;
11763;SDS011;5939;56.522;14.950;2023-05-10T10:14:03;2.37;;;1.90;;
11763;SDS011;5939;56.522;14.950;2023-05-10T10:16:30;4.47;;;2.10;;
11763;SDS011;5939;56.522;14.950;2023-05-10T10:18:57;8.87;;;2.37;;
11763;SDS011;5939;56.522;14.950;2023-05-10T10:21:23;2.70;;;2.20;;
11763;SDS011;5939;56.522;14.950;2023-05-10T10:23:49;4.53;;;2.43;;
11763;SDS011;5939;56.522;14.950;2023-05-10T10:26:15;5.03;;;2.10;;
11763;SDS011;5939;56.522;14.950;2023-05-10T10:34:06;2.50;;;2.00;;
11763;SDS011;5939;56.522;14.950;2023-05-10T10:36:51;5.37;;;2.30;;
11763;SDS011;5939;56.522;14.950;2023-05-10T10:39:18;3.07;;;1.93;;
11763;SDS011;5939;56.522;14.950;2023-05-10T10:47:00;3.70;;;2.57;;
11763;SDS011;5939;56.522;14.950;2023-05-10T10:49:33;2.90;;;2.30;;
11763;SDS011;5939;56.522;14.950;2023-05-10T11:03:15;2.97;;;2.10;;
11763;SDS011;5939;56.522;14.950;2023-05-10T11:05:45;2.80;;;2.27;;
11763;SDS011;5939;56.522;14.950;2023-05-10T11:13:41;3.97;;;2.20;;
11763;SDS011;5939;56.522;14.950;2023-05-10T11:16:18;2.47;;;2.10;;
11763;SDS011;5939;56.522;14.950;2023-05-10T11:18:54;3.90;;;2.33;;
11763;SDS011;5939;56.522;14.950;2023-05-10T11:21:26;3.77;;;2.20;;
11763;SDS011;5939;56.522;14.950;2023-05-10T11:23:53;6.43;;;2.37;;
11763;SDS011;5939;56.522;14.950;2023-05-10T11:26:56;4.97;;;2.43;;
11763;SDS011;5939;56.522;14.950;2023-05-10T11:29:16;4.03;;;2.17;;
11763;SDS011;5939;56.522;14.950;2023-05-10T11:31:43;3.20;;;2.00;;
11763;SDS011;5939;56.522;14.950;2023-05-10T11:34:10;3.67;;;2.20;;
11763;SDS011;5939;56.522;14.950;2023-05-10T11:36:36;3.67;;;2.00;;
11763;SDS011;5939;56.522;14.950;2023-05-10T11:39:02;3.07;;;2.13;;
11763;SDS011;5939;56.522;14.950;2023-05-10T11:41:29;2.73;;;1.97;;
11763;SDS011;5939;56.522;14.950;2023-05-10T11:43:56;2.60;;;2.10;;
11763;SDS011;5939;56.522;14.950;2023-05-10T11:46:25;2.40;;;2.10;;
11763;SDS011;5939;56.522;14.950;2023-05-10T11:49:01;4.07;;;2.23;;
11763;SDS011;5939;56.522;14.950;2023-05-10T11:51:29;3.00;;;2.57;;
11763;SDS011;5939;56.522;14.950;2023-05-10T11:53:57;3.23;;;2.23;;
11763;SDS011;5939;56.522;14.950;2023-05-10T11:56:23;6.03;;;2.50;;
11763;SDS011;5939;56.522;14.950;2023-05-10T11:58:55;5.70;;;2.40;;
11763;SDS011;5939;56.522;14.950;2023-05-10T12:01:22;4.40;;;2.30;;
11763;SDS011;5939;56.522;14.950;2023-05-10T12:03:48;4.23;;;2.47;;
11763;SDS011;5939;56.522;14.950;2023-05-10T12:06:15;2.50;;;2.30;;
11763;SDS011;5939;56.522;14.950;2023-05-10T12:08:45;4.13;;;2.23;;
11763;SDS011;5939;56.522;14.950;2023-05-10T12:11:12;2.80;;;2.20;;
11763;SDS011;5939;56.522;14.950;2023-05-10T12:13:41;4.10;;;2.27;;
11763;SDS011;5939;56.522;14.950;2023-05-10T12:18:40;3.00;;;2.50;;
11763;SDS011;5939;56.522;14.950;2023-05-10T12:21:07;3.07;;;2.30;;
11763;SDS011;5939;56.522;14.950;2023-05-10T12:23:35;5.50;;;2.50;;
11763;SDS011;5939;56.522;14.950;2023-05-10T12:26:02;2.80;;;2.27;;
11763;SDS011;5939;56.522;14.950;2023-05-10T12:28:31;3.30;;;2.27;;
11763;SDS011;5939;56.522;14.950;2023-05-10T12:30:58;2.70;;;2.50;;
11763;SDS011;5939;56.522;14.950;2023-05-10T12:33:24;3.60;;;2.70;;
11763;SDS011;5939;56.522;14.950;2023-05-10T12:35:51;3.97;;;2.53;;
11763;SDS011;5939;56.522;14.950;2023-05-10T12:40:58;5.70;;;2.30;;
11763;SDS011;5939;56.522;14.950;2023-05-10T12:43:25;4.00;;;2.40;;
11763;SDS011;5939;56.522;14.950;2023-05-10T12:45:51;4.17;;;2.70;;
11763;SDS011;5939;56.522;14.950;2023-05-10T12:48:17;6.13;;;2.50;;
11763;SDS011;5939;56.522;14.950;2023-05-10T12:50:43;4.77;;;2.33;;
11763;SDS011;5939;56.522;14.950;2023-05-10T12:53:08;3.37;;;2.07;;
11763;SDS011;5939;56.522;14.950;2023-05-10T12:55:34;2.80;;;2.50;;
11763;SDS011;5939;56.522;14.950;2023-05-10T12:58:00;4.03;;;2.30;;
11763;SDS011;5939;56.522;14.950;2023-05-10T13:00:25;5.27;;;2.40;;
11763;SDS011;5939;56.522;14.950;2023-05-10T13:02:51;5.47;;;2.37;;
11763;SDS011;5939;56.522;14.950;2023-05-10T13:05:17;3.33;;;2.40;;
11763;SDS011;5939;56.522;14.950;2023-05-10T13:07:42;4.20;;;2.20;;
11763;SDS011;5939;56.522;14.950;2023-05-10T13:10:09;4.93;;;2.80;;
11763;SDS011;5939;56.522;14.950;2023-05-10T13:12:35;4.53;;;2.87;;
11763;SDS011;5939;56.522;14.950;2023-05-10T13:15:01;4.73;;;2.50;;
11763;SDS011;5939;56.522;14.950;2023-05-10T13:17:28;5.77;;;2.70;;
11763;SDS011;5939;56.522;14.950;2023-05-10T13:19:54;4.17;;;2.50;;
11763;SDS011;5939;56.522;14.950;2023-05-10T13:22:20;4.13;;;2.70;;
11763;SDS011;5939;56.522;14.950;2023-05-10T13:24:45;4.33;;;2.60;;
11763;SDS011;5939;56.522;14.950;2023-05-10T13:27:11;2.50;;;2.30;;
11763;SDS011;5939;56.522;14.950;2023-05-10T13:29:36;3.07;;;2.50;;
11763;SDS011;5939;56.522;14.950;2023-05-10T13:32:02;2.90;;;2.40;;
11763;SDS011;5939;56.522;14.950;2023-05-10T13:34:28;4.60;;;2.70;;
11763;SDS011;5939;56.522;14.950;2023-05-10T13:36:53;3.10;;;2.67;;
11763;SDS011;5939;56.522;14.950;2023-05-10T13:39:21;4.27;;;2.40;;
11763;SDS011;5939;56.522;14.950;2023-05-10T13:41:47;3.00;;;2.67;;
11763;SDS011;5939;56.522;14.950;2023-05-10T13:44:13;3.00;;;2.67;;
11763;SDS011;5939;56.522;14.950;2023-05-10T13:46:40;4.23;;;2.90;;
11763;SDS011;5939;56.522;14.950;2023-05-10T13:49:08;5.10;;;2.93;;
11763;SDS011;5939;56.522;14.950;2023-05-10T13:51:34;5.17;;;2.80;;
11763;SDS011;5939;56.522;14.950;2023-05-10T13:53:59;3.00;;;2.70;;
11763;SDS011;5939;56.522;14.950;2023-05-10T13:56:25;3.80;;;2.70;;
11763;SDS011;5939;56.522;14.950;2023-05-10T13:58:51;3.93;;;2.60;;
11763;SDS011;5939;56.522;14.950;2023-05-10T14:01:17;2.90;;;2.43;;
11763;SDS011;5939;56.522;14.950;2023-05-10T14:03:42;3.23;;;2.70;;
11763;SDS011;5939;56.522;14.950;2023-05-10T14:06:08;3.43;;;2.63;;
11763;SDS011;5939;56.522;14.950;2023-05-10T14:08:34;4.27;;;3.10;;
11763;SDS011;5939;56.522;14.950;2023-05-10T14:11:00;3.97;;;2.67;;
11763;SDS011;5939;56.522;14.950;2023-05-10T14:13:26;4.17;;;2.57;;
11763;SDS011;5939;56.522;14.950;2023-05-10T14:15:52;3.97;;;2.87;;
11763;SDS011;5939;56.522;14.950;2023-05-10T14:18:19;6.17;;;2.97;;
11763;SDS011;5939;56.522;14.950;2023-05-10T14:20:44;4.00;;;2.60;;
11763;SDS011;5939;56.522;14.950;2023-05-10T14:23:10;3.60;;;2.70;;
11763;SDS011;5939;56.522;14.950;2023-05-10T14:25:36;4.13;;;2.57;;
11763;SDS011;5939;56.522;14.950;2023-05-10T14:28:03;4.07;;;2.90;;
11763;SDS011;5939;56.522;14.950;2023-05-10T14:30:28;5.60;;;2.70;;
11763;SDS011;5939;56.522;14.950;2023-05-10T14:32:54;3.27;;;2.97;;
11763;SDS011;5939;56.522;14.950;2023-05-10T14:35:20;6.90;;;3.33;;
11763;SDS011;5939;56.522;14.950;2023-05-10T14:37:46;5.90;;;2.97;;
11763;SDS011;5939;56.522;14.950;2023-05-10T14:40:12;5.13;;;2.90;;
11763;SDS011;5939;56.522;14.950;2023-05-10T14:42:37;4.57;;;3.07;;
11763;SDS011;5939;56.522;14.950;2023-05-10T14:45:03;3.90;;;2.70;;
11763;SDS011;5939;56.522;14.950;2023-05-10T14:47:29;3.50;;;2.70;;
11763;SDS011;5939;56.522;14.950;2023-05-10T14:49:55;4.20;;;2.80;;
11763;SDS011;5939;56.522;14.950;2023-05-10T14:52:21;5.03;;;2.90;;
11763;SDS011;5939;56.522;14.950;2023-05-10T14:54:47;5.63;;;2.73;;
11763;SDS011;5939;56.522;14.950;2023-05-10T14:57:12;4.57;;;2.50;;
11763;SDS011;5939;56.522;14.950;2023-05-10T14:59:38;3.80;;;2.77;;
11763;SDS011;5939;56.522;14.950;2023-05-10T15:02:04;7.37;;;3.40;;
11763;SDS011;5939;56.522;14.950;2023-05-10T15:04:29;4.97;;;2.90;;
11763;SDS011;5939;56.522;14.950;2023-05-10T15:06:55;3.67;;;3.00;;
11763;SDS011;5939;56.522;14.950;2023-05-10T15:09:24;4.63;;;2.77;;
11763;SDS011;5939;56.522;14.950;2023-05-10T15:11:50;3.80;;;2.83;;
11763;SDS011;5939;56.522;14.950;2023-05-10T15:14:15;4.07;;;2.70;;
11763;SDS011;5939;56.522;14.950;2023-05-10T15:16:41;3.73;;;2.77;;
11763;SDS011;5939;56.522;14.950;2023-05-10T15:19:06;4.17;;;2.83;;
11763;SDS011;5939;56.522;14.950;2023-05-10T15:21:32;4.90;;;2.80;;
11763;SDS011;5939;56.522;14.950;2023-05-10T15:24:03;3.90;;;2.60;;
11763;SDS011;5939;56.522;14.950;2023-05-10T15:26:30;3.57;;;2.53;;
11763;SDS011;5939;56.522;14.950;2023-05-10T15:28:56;3.90;;;2.50;;
11763;SDS011;5939;56.522;14.950;2023-05-10T15:31:22;5.27;;;2.57;;
11763;SDS011;5939;56.522;14.950;2023-05-10T15:33:47;4.17;;;2.40;;
11763;SDS011;5939;56.522;14.950;2023-05-10T15:36:13;4.97;;;2.80;;